createdAt,value
2023-07-25T00:02:03.480Z,18.78
2023-07-25T00:04:36.323Z,18.78
2023-07-25T00:07:09.510Z,18.77
2023-07-25T00:09:42.436Z,18.70
2023-07-25T00:12:15.140Z,18.66
2023-07-25T00:14:49.403Z,18.69
2023-07-25T00:17:22.310Z,18.69
2023-07-25T00:19:55.068Z,18.67
2023-07-25T00:22:28.029Z,18.70
2023-07-25T00:25:00.731Z,18.67
2023-07-25T00:27:33.794Z,18.63
2023-07-25T00:30:09.648Z,18.60
2023-07-25T00:32:42.701Z,18.61
2023-07-25T00:35:15.629Z,18.57
2023-07-25T00:37:48.441Z,18.52
2023-07-25T00:40:21.644Z,18.63
2023-07-25T00:42:57.891Z,18.48
2023-07-25T00:45:32.168Z,18.43
2023-07-25T00:48:05.775Z,18.54
2023-07-25T00:50:38.722Z,18.54
2023-07-25T00:53:11.796Z,18.46
2023-07-25T00:55:44.802Z,18.46
2023-07-25T00:58:18.409Z,18.43
2023-07-25T01:00:52.791Z,18.44
2023-07-25T01:03:25.870Z,18.39
2023-07-25T01:05:58.937Z,18.41
2023-07-25T01:08:34.480Z,18.42
2023-07-25T01:11:07.508Z,18.35
2023-07-25T01:13:40.178Z,18.34
2023-07-25T01:16:17.412Z,18.30
2023-07-25T01:18:51.140Z,18.25
2023-07-25T01:21:25.473Z,18.29
2023-07-25T01:24:03.323Z,18.24
2023-07-25T01:26:36.208Z,18.25
2023-07-25T01:29:08.994Z,18.25
2023-07-25T01:31:42.116Z,18.15
2023-07-25T01:34:14.996Z,18.14
2023-07-25T01:36:47.896Z,18.14
2023-07-25T01:39:22.126Z,18.23
2023-07-25T01:41:54.963Z,18.14
2023-07-25T01:44:27.861Z,18.19
2023-07-25T01:47:00.747Z,18.15
2023-07-25T01:49:33.812Z,18.11
2023-07-25T01:52:07.069Z,18.04
2023-07-25T01:54:41.170Z,18.07
2023-07-25T01:57:13.989Z,18.08
2023-07-25T01:59:46.894Z,18.03
2023-07-25T02:02:20.234Z,17.98
2023-07-25T02:04:53.065Z,18.01
2023-07-25T02:07:26.982Z,18.06
2023-07-25T02:10:01.533Z,18.03
2023-07-25T02:12:34.385Z,17.95
2023-07-25T02:15:07.662Z,17.99
2023-07-25T02:17:40.582Z,17.99
2023-07-25T02:20:13.429Z,18.05
2023-07-25T02:22:46.917Z,18.01
2023-07-25T02:25:21.657Z,18.03
2023-07-25T02:27:54.714Z,17.97
2023-07-25T02:30:27.625Z,17.96
2023-07-25T02:33:00.914Z,18.01
2023-07-25T02:35:33.979Z,17.96
2023-07-25T02:38:06.576Z,17.97
2023-07-25T02:40:41.673Z,17.97
2023-07-25T02:43:14.446Z,18.02
2023-07-25T02:45:47.302Z,17.98
2023-07-25T02:48:21.621Z,17.94
2023-07-25T02:50:54.284Z,17.92
2023-07-25T02:53:27.554Z,17.88
2023-07-25T02:56:01.753Z,17.90
2023-07-25T02:58:34.587Z,17.94
2023-07-25T03:01:07.433Z,18.02
2023-07-25T03:03:40.397Z,18.03
2023-07-25T03:06:13.607Z,18.03
2023-07-25T03:08:46.484Z,18.00
2023-07-25T03:11:20.588Z,18.03
2023-07-25T03:13:53.434Z,18.03
2023-07-25T03:16:26.899Z,17.98
2023-07-25T03:18:59.786Z,18.00
2023-07-25T03:21:32.748Z,18.01
2023-07-25T03:24:06.553Z,18.03
2023-07-25T03:26:40.956Z,17.98
2023-07-25T03:29:13.770Z,18.04
2023-07-25T03:31:46.573Z,18.08
2023-07-25T03:34:19.566Z,18.07
2023-07-25T03:36:54.476Z,18.04
2023-07-25T03:39:27.382Z,18.02
2023-07-25T03:42:01.386Z,18.02
2023-07-25T03:44:36.622Z,18.00
2023-07-25T03:47:10.107Z,18.01
2023-07-25T03:49:42.904Z,18.01
2023-07-25T03:52:15.767Z,18.01
2023-07-25T03:54:48.553Z,17.98
2023-07-25T03:57:22.683Z,17.95
2023-07-25T03:59:55.601Z,18.01
2023-07-25T04:02:28.788Z,18.00
2023-07-25T04:05:01.971Z,17.93
2023-07-25T04:07:35.831Z,17.98
2023-07-25T04:10:09.584Z,17.99
2023-07-25T04:12:43.758Z,18.03
2023-07-25T04:15:16.616Z,18.02
2023-07-25T04:17:49.386Z,18.01
2023-07-25T04:20:22.371Z,17.98
2023-07-25T04:22:56.239Z,17.97
2023-07-25T04:25:31.071Z,17.95
2023-07-25T04:28:05.422Z,18.02
2023-07-25T04:30:38.439Z,17.98
2023-07-25T04:33:11.102Z,17.95
2023-07-25T04:35:46.396Z,17.94
2023-07-25T04:38:19.615Z,17.97
2023-07-25T04:40:53.562Z,17.99
2023-07-25T04:43:28.017Z,17.94
2023-07-25T04:46:00.958Z,18.05
2023-07-25T04:48:33.658Z,18.07
2023-07-25T04:51:06.488Z,18.06
2023-07-25T04:53:39.524Z,18.03
2023-07-25T04:56:12.189Z,18.07
2023-07-25T04:58:46.882Z,18.10
2023-07-25T05:01:19.885Z,18.11
2023-07-25T05:03:52.602Z,18.13
2023-07-25T05:06:25.513Z,18.15
2023-07-25T05:09:00.631Z,18.09
2023-07-25T05:11:34.113Z,18.08
2023-07-25T05:14:08.413Z,18.12
2023-07-25T05:16:41.204Z,18.16
2023-07-25T05:19:13.998Z,18.08
2023-07-25T05:21:46.888Z,18.12
2023-07-25T05:24:19.895Z,18.12
2023-07-25T05:26:52.686Z,18.11
2023-07-25T05:29:26.879Z,18.14
2023-07-25T05:32:01.459Z,18.11
2023-07-25T05:34:34.287Z,18.10
2023-07-25T05:37:07.609Z,18.10
2023-07-25T05:39:40.514Z,18.09
2023-07-25T05:42:13.441Z,18.12
2023-07-25T05:44:47.696Z,18.16
2023-07-25T05:47:20.456Z,18.10
2023-07-25T05:49:53.420Z,18.12
2023-07-25T05:52:26.397Z,18.15
2023-07-25T05:54:59.089Z,18.17
2023-07-25T05:57:31.905Z,18.18
2023-07-25T06:00:08.040Z,18.20
2023-07-25T06:02:41.209Z,18.21
2023-07-25T06:05:14.285Z,18.23
2023-07-25T06:07:47.217Z,18.29
2023-07-25T06:10:19.938Z,18.29
2023-07-25T06:12:53.021Z,18.36
2023-07-25T06:15:29.560Z,18.36
2023-07-25T06:18:02.689Z,18.36
2023-07-25T06:20:38.508Z,18.44
2023-07-25T06:23:11.427Z,18.48
2023-07-25T06:25:46.348Z,18.62
2023-07-25T06:28:19.957Z,18.69
2023-07-25T06:30:55.778Z,18.74
2023-07-25T06:33:30.766Z,18.87
2023-07-25T06:36:03.646Z,18.89
2023-07-25T06:38:36.577Z,18.93
2023-07-25T06:41:09.311Z,18.94
2023-07-25T06:43:42.150Z,19.06
2023-07-25T06:46:17.191Z,19.27
2023-07-25T06:48:50.237Z,19.35
2023-07-25T06:51:22.996Z,19.33
2023-07-25T06:53:55.794Z,19.31
2023-07-25T06:56:29.042Z,19.26
2023-07-25T06:59:01.910Z,19.38
2023-07-25T07:01:36.235Z,19.38
2023-07-25T07:04:09.085Z,19.51
2023-07-25T07:06:42.023Z,19.59
2023-07-25T07:09:14.916Z,19.67
2023-07-25T07:11:47.707Z,19.67
2023-07-25T07:14:20.753Z,19.72
2023-07-25T07:16:59.483Z,19.72
2023-07-25T07:19:32.511Z,19.80
2023-07-25T07:22:05.637Z,19.65
2023-07-25T07:24:38.579Z,19.94
2023-07-25T07:27:11.470Z,20.03
2023-07-25T07:29:45.359Z,20.27
2023-07-25T07:32:19.635Z,20.39
2023-07-25T07:34:52.441Z,20.47
2023-07-25T07:37:25.426Z,20.53
2023-07-25T07:39:58.110Z,20.61
2023-07-25T07:42:30.960Z,20.63
2023-07-25T07:45:06.169Z,20.68
2023-07-25T07:47:40.379Z,20.75
2023-07-25T07:50:13.197Z,20.83
2023-07-25T07:52:49.684Z,20.93
2023-07-25T07:55:24.579Z,20.96
2023-07-25T07:58:01.281Z,21.15
2023-07-25T08:00:34.369Z,21.39
2023-07-25T08:03:08.682Z,21.54
2023-07-25T08:05:41.666Z,21.68
2023-07-25T08:08:17.649Z,21.79
2023-07-25T08:10:50.755Z,21.85
2023-07-25T08:13:25.347Z,21.89
2023-07-25T08:16:01.305Z,21.82
2023-07-25T08:18:35.517Z,21.74
2023-07-25T08:21:08.360Z,21.71
2023-07-25T08:23:41.229Z,21.69
2023-07-25T08:26:14.183Z,21.69
2023-07-25T08:28:48.062Z,21.63
2023-07-25T08:31:20.998Z,21.64
2023-07-25T08:33:57.037Z,21.68
2023-07-25T08:36:32.870Z,21.76
2023-07-25T08:39:05.797Z,21.88
2023-07-25T08:41:41.289Z,22.06
2023-07-25T08:44:16.907Z,22.31
2023-07-25T08:46:53.181Z,22.70
2023-07-25T08:49:32.884Z,22.97
2023-07-25T08:52:07.862Z,23.20
2023-07-25T08:54:45.695Z,23.47
2023-07-25T08:57:20.720Z,23.88
2023-07-25T08:59:55.160Z,23.92
2023-07-25T09:02:28.357Z,24.05
2023-07-25T09:05:02.871Z,24.20
2023-07-25T09:07:36.405Z,24.10
2023-07-25T09:10:10.083Z,24.15
2023-07-25T09:12:43.064Z,24.22
2023-07-25T09:15:16.111Z,24.34
2023-07-25T09:17:54.398Z,24.38
2023-07-25T09:20:29.100Z,24.30
2023-07-25T09:23:03.791Z,24.33
2023-07-25T09:25:37.931Z,24.34
2023-07-25T09:28:10.799Z,24.26
2023-07-25T09:30:48.293Z,24.29
2023-07-25T09:33:27.453Z,24.28
2023-07-25T09:36:01.656Z,24.18
2023-07-25T09:38:34.799Z,24.20
2023-07-25T09:41:08.609Z,24.37
2023-07-25T09:43:41.716Z,24.57
2023-07-25T09:46:14.684Z,24.84
2023-07-25T09:48:49.458Z,24.88
2023-07-25T09:51:23.974Z,25.10
2023-07-25T09:53:57.616Z,25.11
2023-07-25T09:56:30.930Z,25.07
2023-07-25T09:59:06.954Z,25.03
2023-07-25T10:01:41.953Z,25.22
2023-07-25T10:04:18.872Z,25.38
2023-07-25T10:06:55.966Z,25.47
2023-07-25T10:09:30.513Z,25.55
2023-07-25T10:12:05.116Z,25.74
2023-07-25T10:14:39.066Z,25.87
2023-07-25T10:17:13.801Z,25.96
2023-07-25T10:19:49.121Z,26.12
2023-07-25T10:22:37.088Z,26.21
2023-07-25T10:25:12.076Z,26.22
2023-07-25T10:27:45.494Z,26.35
2023-07-25T10:30:25.461Z,26.74
2023-07-25T10:33:02.285Z,26.89
2023-07-25T10:35:53.063Z,27.03
2023-07-25T10:38:33.848Z,27.24
2023-07-25T10:41:16.576Z,27.45
2023-07-25T10:43:59.595Z,27.65
2023-07-25T10:46:35.376Z,27.63
2023-07-25T10:49:16.567Z,27.57
2023-07-25T10:51:54.228Z,27.66
2023-07-25T10:54:32.899Z,27.56
2023-07-25T10:57:18.440Z,27.67
2023-07-25T11:00:01.971Z,27.68
2023-07-25T11:02:37.527Z,27.72
2023-07-25T11:05:22.526Z,27.67
2023-07-25T11:07:56.517Z,27.63
2023-07-25T11:10:30.881Z,27.72
2023-07-25T11:13:03.740Z,27.76
2023-07-25T11:15:47.400Z,27.77
2023-07-25T11:18:22.582Z,27.95
2023-07-25T11:21:00.435Z,28.03
2023-07-25T11:23:33.423Z,28.12
2023-07-25T11:26:08.591Z,28.13
2023-07-25T11:28:41.743Z,28.25
2023-07-25T11:31:22.701Z,28.23
2023-07-25T11:33:55.694Z,28.44
2023-07-25T11:36:28.804Z,28.51
2023-07-25T11:39:03.917Z,28.77
2023-07-25T11:41:38.432Z,28.88
2023-07-25T11:44:17.092Z,29.11
2023-07-25T11:46:54.224Z,29.26
2023-07-25T11:49:47.661Z,29.27
2023-07-25T11:52:21.873Z,29.39
2023-07-25T11:54:55.220Z,29.34
2023-07-25T11:57:30.918Z,29.53
2023-07-25T12:00:07.451Z,29.66
2023-07-25T12:02:41.849Z,29.68
2023-07-25T12:05:28.387Z,29.78
2023-07-25T12:08:04.446Z,29.87
2023-07-25T12:10:38.242Z,30.04
2023-07-25T12:13:13.173Z,30.24
2023-07-25T12:15:53.630Z,30.40
2023-07-25T12:18:30.553Z,30.26
2023-07-25T12:21:05.244Z,30.28
2023-07-25T12:23:41.873Z,30.35
2023-07-25T12:26:15.908Z,30.42
2023-07-25T12:28:55.590Z,30.57
2023-07-25T12:31:29.594Z,30.57
2023-07-25T12:34:02.515Z,30.48
2023-07-25T12:36:35.520Z,30.43
2023-07-25T12:39:09.297Z,30.42
2023-07-25T12:41:44.457Z,30.47
2023-07-25T12:44:19.101Z,30.49
2023-07-25T12:46:52.019Z,30.45
2023-07-25T12:49:25.069Z,30.30
2023-07-25T12:52:00.253Z,30.43
2023-07-25T12:54:33.590Z,30.36
2023-07-25T12:57:06.981Z,30.39
2023-07-25T12:59:41.309Z,30.35
2023-07-25T13:02:14.182Z,30.22
2023-07-25T13:04:47.162Z,30.21
2023-07-25T13:07:19.980Z,30.25
2023-07-25T13:09:57.508Z,30.23
2023-07-25T13:12:30.435Z,30.19
2023-07-25T13:15:05.796Z,30.22
2023-07-25T13:23:33.664Z,30.25
2023-07-25T13:26:06.613Z,30.42
2023-07-25T13:28:39.618Z,30.58
2023-07-25T13:31:13.996Z,30.77
2023-07-25T13:33:48.067Z,30.86
2023-07-25T13:36:21.009Z,31.00
2023-07-25T13:38:54.597Z,30.98
2023-07-25T13:41:27.660Z,31.00
2023-07-25T13:44:00.655Z,30.92
2023-07-25T13:46:35.023Z,31.11
2023-07-25T13:49:08.614Z,31.18
2023-07-25T13:51:41.464Z,31.35
2023-07-25T13:54:15.094Z,31.50
2023-07-25T13:57:03.257Z,31.51
2023-07-25T13:59:36.121Z,31.68
2023-07-25T14:02:10.853Z,31.79
2023-07-25T14:04:43.742Z,31.85
2023-07-25T14:07:17.288Z,31.92
2023-07-25T14:09:50.116Z,31.95
2023-07-25T14:12:24.174Z,31.98
2023-07-25T14:14:59.486Z,32.00
2023-07-25T14:17:34.745Z,32.04
2023-07-25T14:20:10.046Z,32.01
2023-07-25T14:22:44.059Z,32.14
2023-07-25T14:25:17.244Z,32.16
2023-07-25T14:27:51.458Z,32.21
2023-07-25T14:30:24.553Z,32.22
2023-07-25T14:32:59.873Z,32.24
2023-07-25T14:35:32.954Z,32.25
2023-07-25T14:38:08.275Z,32.33
2023-07-25T14:40:41.999Z,32.34
2023-07-25T14:43:17.672Z,32.32
2023-07-25T14:45:50.680Z,32.41
2023-07-25T14:48:26.835Z,32.47
2023-07-25T14:51:03.601Z,32.51
2023-07-25T14:53:36.992Z,32.48
2023-07-25T14:56:15.252Z,32.47
2023-07-25T14:58:48.482Z,32.47
2023-07-25T15:01:21.821Z,32.48
2023-07-25T15:03:58.905Z,32.54
2023-07-25T15:06:31.993Z,32.58
2023-07-25T15:09:05.692Z,32.55
2023-07-25T15:17:23.069Z,32.32
2023-07-25T15:29:57.230Z,31.50
2023-07-25T15:32:31.640Z,31.25
2023-07-25T15:37:57.285Z,30.76
2023-07-25T15:44:00.407Z,30.46
2023-07-25T15:49:42.034Z,30.14
2023-07-25T15:52:16.497Z,30.03
2023-07-25T15:54:50.822Z,29.97
2023-07-25T15:57:23.997Z,29.84
2023-07-25T15:59:56.897Z,29.73
2023-07-25T16:02:29.818Z,29.74
2023-07-25T16:05:08.381Z,29.71
2023-07-25T16:07:42.217Z,29.69
2023-07-25T16:10:16.756Z,29.66
2023-07-25T16:12:49.764Z,29.66
2023-07-25T16:15:23.886Z,29.68
2023-07-25T16:17:56.995Z,29.59
2023-07-25T16:20:29.869Z,29.56
2023-07-25T16:23:02.994Z,29.48
2023-07-25T16:25:37.520Z,29.52
2023-07-25T16:28:10.352Z,29.59
2023-07-25T16:30:43.991Z,29.54
2023-07-25T16:33:22.869Z,29.48
2023-07-25T16:35:56.987Z,29.44
2023-07-25T16:38:34.540Z,29.38
2023-07-25T16:41:10.504Z,29.41
2023-07-25T16:43:43.358Z,29.40
2023-07-25T16:46:16.309Z,29.37
2023-07-25T16:48:49.274Z,29.30
2023-07-25T16:51:22.374Z,29.21
2023-07-25T16:53:55.457Z,29.17
2023-07-25T16:56:30.072Z,29.00
2023-07-25T16:59:03.729Z,28.93
2023-07-25T17:01:37.070Z,28.85
2023-07-25T17:04:10.173Z,28.83
2023-07-25T17:06:43.108Z,28.73
2023-07-25T17:09:16.261Z,28.66
2023-07-25T17:11:50.837Z,28.58
2023-07-25T17:14:23.746Z,28.49
2023-07-25T17:16:56.815Z,28.41
2023-07-25T17:19:30.678Z,28.30
2023-07-25T17:22:03.910Z,28.27
2023-07-25T17:24:37.930Z,28.18
2023-07-25T17:27:12.284Z,28.12
2023-07-25T17:29:45.504Z,28.02
2023-07-25T17:32:19.883Z,27.89
2023-07-25T17:34:55.248Z,27.83
2023-07-25T17:37:28.419Z,27.74
2023-07-25T17:40:24.005Z,27.58
2023-07-25T17:42:58.711Z,27.52
2023-07-25T17:45:31.641Z,27.40
2023-07-25T17:48:16.952Z,27.22
2023-07-25T17:53:52.333Z,27.08
2023-07-25T17:56:25.489Z,26.95
2023-07-25T17:58:59.942Z,26.94
2023-07-25T18:01:33.265Z,26.87
2023-07-25T18:07:24.907Z,26.78
2023-07-25T18:09:58.072Z,26.72
2023-07-25T18:15:26.797Z,26.57
2023-07-25T18:18:01.143Z,26.45
2023-07-25T18:20:34.534Z,26.44
2023-07-25T18:23:07.280Z,26.33
2023-07-25T18:25:40.350Z,26.29
2023-07-25T18:28:13.354Z,26.22
2023-07-25T18:30:48.544Z,26.17
2023-07-25T18:33:21.444Z,26.13
2023-07-25T18:35:54.364Z,26.05
2023-07-25T18:38:27.034Z,26.00
2023-07-25T18:41:00.040Z,25.94
2023-07-25T18:43:33.162Z,25.87
2023-07-25T18:46:07.352Z,25.78
2023-07-25T18:48:40.642Z,25.73
2023-07-25T18:51:13.648Z,25.60
2023-07-25T18:53:46.695Z,25.55
2023-07-25T18:56:19.490Z,25.54
2023-07-25T18:58:52.181Z,25.52
2023-07-25T19:01:27.538Z,25.42
2023-07-25T19:04:00.924Z,25.37
2023-07-25T19:06:34.252Z,25.28
2023-07-25T19:09:08.457Z,25.22
2023-07-25T19:11:41.297Z,25.20
2023-07-25T19:14:14.193Z,25.13
2023-07-25T19:16:48.541Z,25.07
2023-07-25T19:19:21.446Z,25.01
2023-07-25T19:21:54.779Z,24.97
2023-07-25T19:24:27.961Z,24.94
2023-07-25T19:27:01.941Z,24.89
2023-07-25T19:29:34.855Z,24.85
2023-07-25T19:32:11.149Z,24.79
2023-07-25T19:34:44.039Z,24.70
2023-07-25T19:37:16.934Z,24.57
2023-07-25T19:39:49.859Z,24.54
2023-07-25T19:42:26.443Z,24.50
2023-07-25T19:44:59.487Z,24.45
2023-07-25T19:47:34.168Z,24.36
2023-07-25T19:50:08.100Z,24.33
2023-07-25T19:52:41.338Z,24.31
2023-07-25T19:55:14.512Z,24.25
2023-07-25T19:57:47.547Z,24.21
2023-07-25T20:00:20.568Z,24.18
2023-07-25T20:02:57.199Z,24.15
2023-07-25T20:05:30.152Z,24.14
2023-07-25T20:08:03.186Z,24.03
2023-07-25T20:10:36.092Z,24.03
2023-07-25T20:13:08.830Z,23.92
2023-07-25T20:15:41.833Z,23.88
2023-07-25T20:18:16.347Z,23.86
2023-07-25T20:20:57.928Z,23.80
2023-07-25T20:23:31.120Z,23.79
2023-07-25T20:26:04.471Z,23.76
2023-07-25T20:28:37.388Z,23.70
2023-07-25T20:31:10.180Z,23.67
2023-07-25T20:33:44.896Z,23.62
2023-07-25T20:36:17.681Z,23.60
2023-07-25T20:38:51.563Z,23.58
2023-07-25T20:41:24.724Z,23.56
2023-07-25T20:43:58.637Z,23.51
2023-07-25T20:46:34.147Z,23.48
2023-07-25T20:49:08.686Z,23.46
2023-07-25T20:51:42.552Z,23.46
2023-07-25T20:54:15.551Z,23.41
2023-07-25T20:56:48.427Z,23.34
2023-07-25T20:59:21.684Z,23.32
2023-07-25T21:01:55.624Z,23.27
2023-07-25T21:04:30.131Z,23.16
2023-07-25T21:07:04.090Z,23.18
2023-07-25T21:09:36.748Z,23.17
2023-07-25T21:12:12.528Z,23.13
2023-07-25T21:14:46.430Z,23.10
2023-07-25T21:17:19.129Z,23.09
2023-07-25T21:19:53.727Z,23.06
2023-07-25T21:22:26.563Z,23.06
2023-07-25T21:24:59.489Z,23.03
2023-07-25T21:27:32.322Z,23.00
2023-07-25T21:30:06.058Z,22.95
2023-07-25T21:32:38.932Z,22.93
2023-07-25T21:35:13.307Z,22.89
2023-07-25T21:37:46.272Z,22.86
2023-07-25T21:40:19.023Z,22.83
2023-07-25T21:42:53.028Z,22.80
2023-07-25T21:45:26.019Z,22.77
2023-07-25T21:47:58.899Z,22.69
2023-07-25T21:50:33.857Z,22.68
2023-07-25T21:53:06.698Z,22.65
2023-07-25T21:55:39.669Z,22.56
2023-07-25T21:58:12.610Z,22.53
2023-07-25T22:00:45.289Z,22.51
2023-07-25T22:03:18.126Z,22.49
2023-07-25T22:05:52.581Z,22.51
2023-07-25T22:08:26.329Z,22.42
2023-07-25T22:10:59.136Z,22.39
2023-07-25T22:13:31.963Z,22.29
2023-07-25T22:16:05.112Z,22.31
2023-07-25T22:18:37.952Z,22.23
2023-07-25T22:21:12.218Z,22.17
2023-07-25T22:23:44.986Z,22.16
2023-07-25T22:26:17.750Z,22.15
2023-07-25T22:28:50.884Z,22.07
2023-07-25T22:31:23.787Z,22.04
2023-07-25T22:33:56.452Z,21.96
2023-07-25T22:36:31.156Z,21.95
2023-07-25T22:39:04.210Z,21.94
2023-07-25T22:41:37.162Z,21.88
2023-07-25T22:44:10.056Z,21.86
2023-07-25T22:46:42.941Z,21.83
2023-07-25T22:49:15.715Z,21.78
2023-07-25T22:51:49.954Z,21.74
2023-07-25T22:54:23.064Z,21.72
2023-07-25T22:56:56.836Z,21.65
2023-07-25T22:59:30.881Z,21.66
2023-07-25T23:02:04.760Z,21.64
2023-07-25T23:04:37.949Z,21.62
2023-07-25T23:07:12.255Z,21.55
2023-07-25T23:09:45.052Z,21.55
2023-07-25T23:12:18.010Z,21.46
2023-07-25T23:14:51.123Z,21.34
2023-07-25T23:17:24.300Z,21.30
2023-07-25T23:19:57.286Z,21.29
2023-07-25T23:22:31.529Z,21.27
2023-07-25T23:25:04.880Z,21.20
2023-07-25T23:27:37.664Z,21.16
2023-07-25T23:30:11.392Z,21.11
2023-07-25T23:32:44.547Z,21.18
2023-07-25T23:35:17.908Z,21.11
2023-07-25T23:37:52.320Z,21.01
2023-07-25T23:40:25.399Z,21.00
2023-07-25T23:42:58.322Z,20.97
2023-07-25T23:45:31.125Z,20.94
2023-07-25T23:48:04.031Z,20.95
2023-07-25T23:50:37.094Z,20.83
2023-07-25T23:53:11.607Z,20.85
2023-07-25T23:55:44.381Z,20.81
2023-07-25T23:58:17.207Z,20.75
